sensor_id;sensor_type;location;lat;lon;timestamp;temperature;humidity
51982;DHT22;37998;53.416;6.730;2023-04-07T00:00:28;7.60;99.90
51982;DHT22;37998;53.416;6.730;2023-04-07T00:02:54;7.60;99.90
51982;DHT22;37998;53.416;6.730;2023-04-07T00:05:21;7.60;99.90
51982;DHT22;37998;53.416;6.730;2023-04-07T00:07:47;7.60;99.90
51982;DHT22;37998;53.416;6.730;2023-04-07T00:10:13;7.60;99.90
51982;DHT22;37998;53.416;6.730;2023-04-07T00:12:38;7.60;99.90
51982;DHT22;37998;53.416;6.730;2023-04-07T00:15:04;7.60;99.90
51982;DHT22;37998;53.416;6.730;2023-04-07T00:17:30;7.60;99.90
51982;DHT22;37998;53.416;6.730;2023-04-07T00:19:56;7.60;99.90
51982;DHT22;37998;53.416;6.730;2023-04-07T00:22:21;7.60;99.90
51982;DHT22;37998;53.416;6.730;2023-04-07T00:24:47;7.60;99.90
51982;DHT22;37998;53.416;6.730;2023-04-07T00:27:13;7.60;99.90
51982;DHT22;37998;53.416;6.730;2023-04-07T00:29:39;7.70;99.90
51982;DHT22;37998;53.416;6.730;2023-04-07T00:32:04;7.60;99.90
51982;DHT22;37998;53.416;6.730;2023-04-07T00:34:30;7.60;99.90
51982;DHT22;37998;53.416;6.730;2023-04-07T00:36:56;7.70;99.90
51982;DHT22;37998;53.416;6.730;2023-04-07T00:39:21;7.60;99.90
51982;DHT22;37998;53.416;6.730;2023-04-07T00:41:47;7.60;99.90
51982;DHT22;37998;53.416;6.730;2023-04-07T00:44:13;7.60;99.90
51982;DHT22;37998;53.416;6.730;2023-04-07T00:46:40;7.60;99.90
51982;DHT22;37998;53.416;6.730;2023-04-07T00:49:06;7.60;99.90
51982;DHT22;37998;53.416;6.730;2023-04-07T00:51:32;7.60;99.90
51982;DHT22;37998;53.416;6.730;2023-04-07T00:53:59;7.60;99.90
51982;DHT22;37998;53.416;6.730;2023-04-07T00:56:26;7.60;99.90
51982;DHT22;37998;53.416;6.730;2023-04-07T00:58:51;7.60;99.90
51982;DHT22;37998;53.416;6.730;2023-04-07T01:01:26;7.60;99.90
51982;DHT22;37998;53.416;6.730;2023-04-07T01:04:12;7.60;99.90
51982;DHT22;37998;53.416;6.730;2023-04-07T01:06:44;7.60;99.90
51982;DHT22;37998;53.416;6.730;2023-04-07T01:09:29;7.60;99.90
51982;DHT22;37998;53.416;6.730;2023-04-07T01:12:06;7.60;99.90
51982;DHT22;37998;53.416;6.730;2023-04-07T01:14:40;7.60;99.90
51982;DHT22;37998;53.416;6.730;2023-04-07T01:17:09;7.60;99.90
51982;DHT22;37998;53.416;6.730;2023-04-07T01:19:42;7.60;99.90
51982;DHT22;37998;53.416;6.730;2023-04-07T01:22:14;7.60;99.90
51982;DHT22;37998;53.416;6.730;2023-04-07T01:24:56;7.60;99.90
51982;DHT22;37998;53.416;6.730;2023-04-07T01:30:31;7.60;99.90
51982;DHT22;37998;53.416;6.730;2023-04-07T01:32:59;7.60;99.90
51982;DHT22;37998;53.416;6.730;2023-04-07T01:35:28;7.60;99.90
51982;DHT22;37998;53.416;6.730;2023-04-07T01:37:55;7.60;99.90
51982;DHT22;37998;53.416;6.730;2023-04-07T01:40:23;7.60;99.90
51982;DHT22;37998;53.416;6.730;2023-04-07T01:42:50;7.60;99.90
51982;DHT22;37998;53.416;6.730;2023-04-07T01:45:17;7.60;99.90
51982;DHT22;37998;53.416;6.730;2023-04-07T01:47:44;7.60;99.90
51982;DHT22;37998;53.416;6.730;2023-04-07T01:50:11;7.60;99.90
51982;DHT22;37998;53.416;6.730;2023-04-07T01:52:38;7.60;99.90
51982;DHT22;37998;53.416;6.730;2023-04-07T01:55:05;7.60;99.90
51982;DHT22;37998;53.416;6.730;2023-04-07T01:57:32;7.60;99.90
51982;DHT22;37998;53.416;6.730;2023-04-07T01:59:57;7.60;99.90
51982;DHT22;37998;53.416;6.730;2023-04-07T02:02:23;7.60;99.90
51982;DHT22;37998;53.416;6.730;2023-04-07T02:04:58;7.60;99.90
51982;DHT22;37998;53.416;6.730;2023-04-07T02:07:38;7.60;99.90
51982;DHT22;37998;53.416;6.730;2023-04-07T02:10:09;7.50;99.90
51982;DHT22;37998;53.416;6.730;2023-04-07T02:12:37;7.50;99.90
51982;DHT22;37998;53.416;6.730;2023-04-07T02:15:07;7.50;99.90
51982;DHT22;37998;53.416;6.730;2023-04-07T02:17:35;7.50;99.90
51982;DHT22;37998;53.416;6.730;2023-04-07T02:20:02;7.50;99.90
51982;DHT22;37998;53.416;6.730;2023-04-07T02:22:31;7.40;99.90
51982;DHT22;37998;53.416;6.730;2023-04-07T02:24:57;7.40;99.90
51982;DHT22;37998;53.416;6.730;2023-04-07T02:27:23;7.40;99.90
51982;DHT22;37998;53.416;6.730;2023-04-07T02:29:48;7.40;99.90
51982;DHT22;37998;53.416;6.730;2023-04-07T02:32:14;7.40;99.90
51982;DHT22;37998;53.416;6.730;2023-04-07T02:34:42;7.40;99.90
51982;DHT22;37998;53.416;6.730;2023-04-07T02:37:07;7.40;99.90
51982;DHT22;37998;53.416;6.730;2023-04-07T02:39:33;7.40;99.90
51982;DHT22;37998;53.416;6.730;2023-04-07T02:41:59;7.40;99.90
51982;DHT22;37998;53.416;6.730;2023-04-07T02:44:24;7.40;99.90
51982;DHT22;37998;53.416;6.730;2023-04-07T02:46:50;7.40;99.90
51982;DHT22;37998;53.416;6.730;2023-04-07T02:49:16;7.40;99.90
51982;DHT22;37998;53.416;6.730;2023-04-07T02:51:42;7.50;99.90
51982;DHT22;37998;53.416;6.730;2023-04-07T02:54:07;7.50;99.90
51982;DHT22;37998;53.416;6.730;2023-04-07T02:56:33;7.40;99.90
51982;DHT22;37998;53.416;6.730;2023-04-07T02:58:58;7.50;99.90
51982;DHT22;37998;53.416;6.730;2023-04-07T03:01:24;7.50;99.90
51982;DHT22;37998;53.416;6.730;2023-04-07T03:03:50;7.50;99.90
51982;DHT22;37998;53.416;6.730;2023-04-07T03:06:15;7.50;99.90
51982;DHT22;37998;53.416;6.730;2023-04-07T03:08:41;7.50;99.90
51982;DHT22;37998;53.416;6.730;2023-04-07T03:11:07;7.50;99.90
51982;DHT22;37998;53.416;6.730;2023-04-07T03:13:32;7.50;99.90
51982;DHT22;37998;53.416;6.730;2023-04-07T03:15:58;7.50;99.90
51982;DHT22;37998;53.416;6.730;2023-04-07T03:18:23;7.60;99.90
51982;DHT22;37998;53.416;6.730;2023-04-07T03:20:49;7.50;99.90
51982;DHT22;37998;53.416;6.730;2023-04-07T03:23:17;7.50;99.90
51982;DHT22;37998;53.416;6.730;2023-04-07T03:25:43;7.50;99.90
51982;DHT22;37998;53.416;6.730;2023-04-07T03:28:09;7.50;99.90
51982;DHT22;37998;53.416;6.730;2023-04-07T03:30:35;7.50;99.90
51982;DHT22;37998;53.416;6.730;2023-04-07T03:33:01;7.50;99.90
51982;DHT22;37998;53.416;6.730;2023-04-07T03:35:27;7.50;99.90
51982;DHT22;37998;53.416;6.730;2023-04-07T03:37:52;7.60;99.90
51982;DHT22;37998;53.416;6.730;2023-04-07T03:40:18;7.50;99.90
51982;DHT22;37998;53.416;6.730;2023-04-07T03:42:45;7.50;99.90
51982;DHT22;37998;53.416;6.730;2023-04-07T03:45:11;7.50;99.90
51982;DHT22;37998;53.416;6.730;2023-04-07T03:47:36;7.50;99.90
51982;DHT22;37998;53.416;6.730;2023-04-07T03:50:02;7.50;99.90
51982;DHT22;37998;53.416;6.730;2023-04-07T03:52:28;7.50;99.90
51982;DHT22;37998;53.416;6.730;2023-04-07T03:54:53;7.60;99.90
51982;DHT22;37998;53.416;6.730;2023-04-07T03:57:19;7.50;99.90
51982;DHT22;37998;53.416;6.730;2023-04-07T03:59:45;7.60;99.90
51982;DHT22;37998;53.416;6.730;2023-04-07T04:02:12;7.50;99.90
51982;DHT22;37998;53.416;6.730;2023-04-07T04:04:38;7.50;99.90
51982;DHT22;37998;53.416;6.730;2023-04-07T04:07:03;7.50;99.90
51982;DHT22;37998;53.416;6.730;2023-04-07T04:09:29;7.50;99.90
51982;DHT22;37998;53.416;6.730;2023-04-07T04:11:55;7.60;99.90
51982;DHT22;37998;53.416;6.730;2023-04-07T04:14:21;7.50;99.90
51982;DHT22;37998;53.416;6.730;2023-04-07T04:16:47;7.60;99.90
51982;DHT22;37998;53.416;6.730;2023-04-07T04:19:12;7.60;99.90
51982;DHT22;37998;53.416;6.730;2023-04-07T04:21:38;7.60;99.90
51982;DHT22;37998;53.416;6.730;2023-04-07T04:24:03;7.60;99.90
51982;DHT22;37998;53.416;6.730;2023-04-07T04:26:29;7.60;99.90
51982;DHT22;37998;53.416;6.730;2023-04-07T04:28:55;7.50;99.90
51982;DHT22;37998;53.416;6.730;2023-04-07T04:31:20;7.60;99.90
51982;DHT22;37998;53.416;6.730;2023-04-07T04:33:46;7.60;99.90
51982;DHT22;37998;53.416;6.730;2023-04-07T04:36:12;7.60;99.90
51982;DHT22;37998;53.416;6.730;2023-04-07T04:38:37;7.60;99.90
51982;DHT22;37998;53.416;6.730;2023-04-07T04:41:03;7.60;99.90
51982;DHT22;37998;53.416;6.730;2023-04-07T04:43:29;7.50;99.90
51982;DHT22;37998;53.416;6.730;2023-04-07T04:45:55;7.60;99.90
51982;DHT22;37998;53.416;6.730;2023-04-07T04:48:21;7.60;99.90
51982;DHT22;37998;53.416;6.730;2023-04-07T04:50:47;7.70;99.90
51982;DHT22;37998;53.416;6.730;2023-04-07T04:53:12;7.50;99.90
51982;DHT22;37998;53.416;6.730;2023-04-07T04:55:38;7.50;99.90
51982;DHT22;37998;53.416;6.730;2023-04-07T04:58:05;7.50;99.90
51982;DHT22;37998;53.416;6.730;2023-04-07T05:00:31;7.70;99.90
51982;DHT22;37998;53.416;6.730;2023-04-07T05:02:56;7.50;99.90
51982;DHT22;37998;53.416;6.730;2023-04-07T05:05:22;7.50;99.90
51982;DHT22;37998;53.416;6.730;2023-04-07T05:07:47;7.50;99.90
51982;DHT22;37998;53.416;6.730;2023-04-07T05:10:13;7.60;99.90
51982;DHT22;37998;53.416;6.730;2023-04-07T05:12:39;7.50;99.90
51982;DHT22;37998;53.416;6.730;2023-04-07T05:15:05;7.50;99.90
51982;DHT22;37998;53.416;6.730;2023-04-07T05:17:30;7.50;99.90
51982;DHT22;37998;53.416;6.730;2023-04-07T05:19:56;7.50;99.90
51982;DHT22;37998;53.416;6.730;2023-04-07T05:22:22;7.50;99.90
51982;DHT22;37998;53.416;6.730;2023-04-07T05:24:47;7.50;99.90
51982;DHT22;37998;53.416;6.730;2023-04-07T05:27:13;7.50;99.90
51982;DHT22;37998;53.416;6.730;2023-04-07T05:29:39;7.50;99.90
51982;DHT22;37998;53.416;6.730;2023-04-07T05:32:05;7.50;99.90
51982;DHT22;37998;53.416;6.730;2023-04-07T05:34:31;7.50;99.90
51982;DHT22;37998;53.416;6.730;2023-04-07T05:36:57;7.50;99.90
51982;DHT22;37998;53.416;6.730;2023-04-07T05:39:22;7.50;99.90
51982;DHT22;37998;53.416;6.730;2023-04-07T05:41:48;7.50;99.90
51982;DHT22;37998;53.416;6.730;2023-04-07T05:44:14;7.60;99.90
51982;DHT22;37998;53.416;6.730;2023-04-07T05:46:39;7.50;99.90
51982;DHT22;37998;53.416;6.730;2023-04-07T05:49:05;7.60;99.90
51982;DHT22;37998;53.416;6.730;2023-04-07T05:51:31;7.60;99.90
51982;DHT22;37998;53.416;6.730;2023-04-07T05:54:00;7.60;99.90
51982;DHT22;37998;53.416;6.730;2023-04-07T05:56:27;7.60;99.90
51982;DHT22;37998;53.416;6.730;2023-04-07T05:58:52;7.60;99.90
51982;DHT22;37998;53.416;6.730;2023-04-07T06:01:18;7.60;99.90
51982;DHT22;37998;53.416;6.730;2023-04-07T06:03:44;7.60;99.90
51982;DHT22;37998;53.416;6.730;2023-04-07T06:06:10;7.60;99.90
51982;DHT22;37998;53.416;6.730;2023-04-07T06:08:35;7.60;99.90
51982;DHT22;37998;53.416;6.730;2023-04-07T06:11:01;7.60;99.90
51982;DHT22;37998;53.416;6.730;2023-04-07T06:13:26;7.60;99.90
51982;DHT22;37998;53.416;6.730;2023-04-07T06:15:54;7.60;99.90
51982;DHT22;37998;53.416;6.730;2023-04-07T06:18:21;7.60;99.90
51982;DHT22;37998;53.416;6.730;2023-04-07T06:20:47;7.70;99.90
51982;DHT22;37998;53.416;6.730;2023-04-07T06:23:12;7.70;99.90
51982;DHT22;37998;53.416;6.730;2023-04-07T06:25:38;7.70;99.90
51982;DHT22;37998;53.416;6.730;2023-04-07T06:28:04;6.90;99.90
51982;DHT22;37998;53.416;6.730;2023-04-07T06:30:30;7.80;99.90
51982;DHT22;37998;53.416;6.730;2023-04-07T06:32:56;7.80;99.90
51982;DHT22;37998;53.416;6.730;2023-04-07T06:35:21;7.80;99.90
51982;DHT22;37998;53.416;6.730;2023-04-07T06:37:47;7.80;99.90
51982;DHT22;37998;53.416;6.730;2023-04-07T06:40:13;7.80;99.90
51982;DHT22;37998;53.416;6.730;2023-04-07T06:42:39;7.80;99.90
51982;DHT22;37998;53.416;6.730;2023-04-07T06:45:05;7.80;99.90
51982;DHT22;37998;53.416;6.730;2023-04-07T06:47:30;7.80;99.90
51982;DHT22;37998;53.416;6.730;2023-04-07T06:49:56;7.80;99.90
51982;DHT22;37998;53.416;6.730;2023-04-07T06:52:24;7.80;99.90
51982;DHT22;37998;53.416;6.730;2023-04-07T06:54:50;7.90;99.90
51982;DHT22;37998;53.416;6.730;2023-04-07T06:57:16;7.90;99.90
51982;DHT22;37998;53.416;6.730;2023-04-07T06:59:41;7.90;99.90
51982;DHT22;37998;53.416;6.730;2023-04-07T07:02:07;7.90;99.90
51982;DHT22;37998;53.416;6.730;2023-04-07T07:04:33;7.90;99.90
51982;DHT22;37998;53.416;6.730;2023-04-07T07:06:59;7.90;99.90
51982;DHT22;37998;53.416;6.730;2023-04-07T07:09:25;8.00;99.90
51982;DHT22;37998;53.416;6.730;2023-04-07T07:11:52;8.00;99.90
51982;DHT22;37998;53.416;6.730;2023-04-07T07:14:17;8.00;99.90
51982;DHT22;37998;53.416;6.730;2023-04-07T07:16:43;8.00;99.90
51982;DHT22;37998;53.416;6.730;2023-04-07T07:19:09;8.00;99.90
51982;DHT22;37998;53.416;6.730;2023-04-07T07:21:35;8.00;99.90
51982;DHT22;37998;53.416;6.730;2023-04-07T07:24:00;8.00;99.90
51982;DHT22;37998;53.416;6.730;2023-04-07T07:26:26;8.00;99.90
51982;DHT22;37998;53.416;6.730;2023-04-07T07:28:52;7.90;99.90
51982;DHT22;37998;53.416;6.730;2023-04-07T07:31:18;7.90;99.90
51982;DHT22;37998;53.416;6.730;2023-04-07T07:33:43;8.00;99.90
51982;DHT22;37998;53.416;6.730;2023-04-07T07:36:11;7.90;99.90
51982;DHT22;37998;53.416;6.730;2023-04-07T07:38:37;7.90;99.90
51982;DHT22;37998;53.416;6.730;2023-04-07T07:41:03;8.00;99.90
51982;DHT22;37998;53.416;6.730;2023-04-07T07:43:28;8.00;99.90
51982;DHT22;37998;53.416;6.730;2023-04-07T07:45:54;8.00;99.90
51982;DHT22;37998;53.416;6.730;2023-04-07T07:48:20;8.10;99.90
51982;DHT22;37998;53.416;6.730;2023-04-07T07:50:46;8.10;99.90
51982;DHT22;37998;53.416;6.730;2023-04-07T07:53:12;8.20;99.90
51982;DHT22;37998;53.416;6.730;2023-04-07T07:55:38;8.20;99.90
51982;DHT22;37998;53.416;6.730;2023-04-07T07:58:04;8.30;99.90
51982;DHT22;37998;53.416;6.730;2023-04-07T08:00:29;8.30;99.90
51982;DHT22;37998;53.416;6.730;2023-04-07T08:02:55;8.30;99.90
51982;DHT22;37998;53.416;6.730;2023-04-07T08:05:21;8.30;99.90
51982;DHT22;37998;53.416;6.730;2023-04-07T08:07:47;8.20;99.90
51982;DHT22;37998;53.416;6.730;2023-04-07T08:10:13;8.30;99.90
51982;DHT22;37998;53.416;6.730;2023-04-07T08:12:39;8.20;99.90
51982;DHT22;37998;53.416;6.730;2023-04-07T08:15:05;8.30;99.90
51982;DHT22;37998;53.416;6.730;2023-04-07T08:17:34;8.30;99.90
51982;DHT22;37998;53.416;6.730;2023-04-07T08:20:00;8.30;99.90
51982;DHT22;37998;53.416;6.730;2023-04-07T08:22:26;8.30;99.90
51982;DHT22;37998;53.416;6.730;2023-04-07T08:24:52;8.30;99.90
51982;DHT22;37998;53.416;6.730;2023-04-07T08:27:17;8.30;99.90
51982;DHT22;37998;53.416;6.730;2023-04-07T08:29:43;8.30;99.90
51982;DHT22;37998;53.416;6.730;2023-04-07T08:32:08;8.40;99.90
51982;DHT22;37998;53.416;6.730;2023-04-07T08:34:34;8.40;99.90
51982;DHT22;37998;53.416;6.730;2023-04-07T08:37:00;8.50;99.90
51982;DHT22;37998;53.416;6.730;2023-04-07T08:39:26;8.50;99.90
51982;DHT22;37998;53.416;6.730;2023-04-07T08:41:54;8.60;99.90
51982;DHT22;37998;53.416;6.730;2023-04-07T08:44:22;8.80;99.90
51982;DHT22;37998;53.416;6.730;2023-04-07T08:46:50;8.90;99.90
51982;DHT22;37998;53.416;6.730;2023-04-07T08:49:16;9.10;99.90
51982;DHT22;37998;53.416;6.730;2023-04-07T08:51:46;9.20;99.90
51982;DHT22;37998;53.416;6.730;2023-04-07T08:54:14;9.40;99.90
51982;DHT22;37998;53.416;6.730;2023-04-07T08:56:41;9.40;99.90
51982;DHT22;37998;53.416;6.730;2023-04-07T08:59:13;9.50;99.90
51982;DHT22;37998;53.416;6.730;2023-04-07T09:01:39;9.50;99.90
51982;DHT22;37998;53.416;6.730;2023-04-07T09:04:06;9.60;99.90
51982;DHT22;37998;53.416;6.730;2023-04-07T09:06:33;9.70;99.90
51982;DHT22;37998;53.416;6.730;2023-04-07T09:08:59;9.90;99.90
51982;DHT22;37998;53.416;6.730;2023-04-07T09:11:26;10.00;99.90
51982;DHT22;37998;53.416;6.730;2023-04-07T09:13:52;10.20;99.90
51982;DHT22;37998;53.416;6.730;2023-04-07T09:16:18;10.20;99.90
51982;DHT22;37998;53.416;6.730;2023-04-07T09:18:44;10.30;99.90
51982;DHT22;37998;53.416;6.730;2023-04-07T09:21:10;10.40;99.90
51982;DHT22;37998;53.416;6.730;2023-04-07T09:23:40;10.40;99.90
51982;DHT22;37998;53.416;6.730;2023-04-07T09:26:26;10.50;99.90
51982;DHT22;37998;53.416;6.730;2023-04-07T09:29:00;10.50;99.90
51982;DHT22;37998;53.416;6.730;2023-04-07T09:31:47;10.60;99.90
51982;DHT22;37998;53.416;6.730;2023-04-07T09:34:29;10.70;99.90
51982;DHT22;37998;53.416;6.730;2023-04-07T09:36:55;10.80;99.90
51982;DHT22;37998;53.416;6.730;2023-04-07T09:39:22;10.80;99.90
51982;DHT22;37998;53.416;6.730;2023-04-07T09:41:47;10.90;99.90
51982;DHT22;37998;53.416;6.730;2023-04-07T09:44:13;11.10;99.90
51982;DHT22;37998;53.416;6.730;2023-04-07T09:46:56;11.20;99.90
51982;DHT22;37998;53.416;6.730;2023-04-07T09:49:25;11.20;99.90
51982;DHT22;37998;53.416;6.730;2023-04-07T09:51:57;11.40;99.90
51982;DHT22;37998;53.416;6.730;2023-04-07T09:54:40;11.50;99.90
51982;DHT22;37998;53.416;6.730;2023-04-07T09:57:08;11.60;99.90
51982;DHT22;37998;53.416;6.730;2023-04-07T09:59:39;11.60;99.90
51982;DHT22;37998;53.416;6.730;2023-04-07T10:02:07;11.60;99.90
51982;DHT22;37998;53.416;6.730;2023-04-07T10:04:33;11.60;99.90
51982;DHT22;37998;53.416;6.730;2023-04-07T10:06:59;11.70;99.90
51982;DHT22;37998;53.416;6.730;2023-04-07T10:09:29;11.80;99.90
51982;DHT22;37998;53.416;6.730;2023-04-07T10:11:56;11.80;99.90
51982;DHT22;37998;53.416;6.730;2023-04-07T10:14:27;11.80;99.90
51982;DHT22;37998;53.416;6.730;2023-04-07T10:16:53;11.80;99.90
51982;DHT22;37998;53.416;6.730;2023-04-07T10:19:19;11.90;99.90
51982;DHT22;37998;53.416;6.730;2023-04-07T10:21:48;12.00;99.90
51982;DHT22;37998;53.416;6.730;2023-04-07T10:27:18;12.10;99.90
51982;DHT22;37998;53.416;6.730;2023-04-07T10:29:46;12.00;99.90
51982;DHT22;37998;53.416;6.730;2023-04-07T10:32:13;12.10;99.90
51982;DHT22;37998;53.416;6.730;2023-04-07T10:34:59;12.10;99.90
51982;DHT22;37998;53.416;6.730;2023-04-07T10:37:26;12.10;99.90
51982;DHT22;37998;53.416;6.730;2023-04-07T10:42:44;12.20;99.90
51982;DHT22;37998;53.416;6.730;2023-04-07T10:45:12;12.20;99.90
51982;DHT22;37998;53.416;6.730;2023-04-07T10:50:23;12.40;99.90
51982;DHT22;37998;53.416;6.730;2023-04-07T10:53:07;12.50;99.90
51982;DHT22;37998;53.416;6.730;2023-04-07T10:55:39;12.50;99.90
51982;DHT22;37998;53.416;6.730;2023-04-07T11:03:35;12.70;99.90
51982;DHT22;37998;53.416;6.730;2023-04-07T11:06:04;12.60;99.90
51982;DHT22;37998;53.416;6.730;2023-04-07T11:08:34;12.70;99.90
51982;DHT22;37998;53.416;6.730;2023-04-07T11:11:01;12.90;99.90
51982;DHT22;37998;53.416;6.730;2023-04-07T11:13:26;13.00;99.90
51982;DHT22;37998;53.416;6.730;2023-04-07T11:15:52;13.10;99.90
51982;DHT22;37998;53.416;6.730;2023-04-07T11:18:20;13.20;99.90
51982;DHT22;37998;53.416;6.730;2023-04-07T11:21:05;13.30;99.90
51982;DHT22;37998;53.416;6.730;2023-04-07T11:23:44;13.40;99.90
51982;DHT22;37998;53.416;6.730;2023-04-07T11:26:11;13.40;98.70
51982;DHT22;37998;53.416;6.730;2023-04-07T11:28:50;13.30;98.50
51982;DHT22;37998;53.416;6.730;2023-04-07T11:31:28;13.40;97.80
51982;DHT22;37998;53.416;6.730;2023-04-07T11:33:58;13.50;98.00
51982;DHT22;37998;53.416;6.730;2023-04-07T11:36:32;13.60;97.50
51982;DHT22;37998;53.416;6.730;2023-04-07T11:38:58;13.60;96.70
51982;DHT22;37998;53.416;6.730;2023-04-07T11:41:27;13.60;96.70
51982;DHT22;37998;53.416;6.730;2023-04-07T11:44:11;13.60;96.30
51982;DHT22;37998;53.416;6.730;2023-04-07T11:49:23;13.80;96.00
51982;DHT22;37998;53.416;6.730;2023-04-07T11:52:00;13.80;95.90
51982;DHT22;37998;53.416;6.730;2023-04-07T11:54:38;13.80;95.30
51982;DHT22;37998;53.416;6.730;2023-04-07T11:57:04;13.90;95.70
51982;DHT22;37998;53.416;6.730;2023-04-07T11:59:29;14.00;95.80
51982;DHT22;37998;53.416;6.730;2023-04-07T12:01:55;13.90;95.30
51982;DHT22;37998;53.416;6.730;2023-04-07T12:04:21;14.00;95.10
51982;DHT22;37998;53.416;6.730;2023-04-07T12:06:47;14.10;95.00
51982;DHT22;37998;53.416;6.730;2023-04-07T12:09:27;14.00;94.70
51982;DHT22;37998;53.416;6.730;2023-04-07T12:11:54;14.10;94.70
51982;DHT22;37998;53.416;6.730;2023-04-07T12:14:21;14.00;95.10
51982;DHT22;37998;53.416;6.730;2023-04-07T12:16:47;14.00;94.50
51982;DHT22;37998;53.416;6.730;2023-04-07T12:19:12;13.90;94.00
51982;DHT22;37998;53.416;6.730;2023-04-07T12:21:38;13.80;93.60
51982;DHT22;37998;53.416;6.730;2023-04-07T12:24:04;13.70;93.80
51982;DHT22;37998;53.416;6.730;2023-04-07T12:26:30;13.60;93.90
51982;DHT22;37998;53.416;6.730;2023-04-07T12:28:55;13.50;93.50
51982;DHT22;37998;53.416;6.730;2023-04-07T12:31:23;13.50;93.50
51982;DHT22;37998;53.416;6.730;2023-04-07T12:33:48;13.40;93.90
51982;DHT22;37998;53.416;6.730;2023-04-07T12:36:14;13.40;93.10
51982;DHT22;37998;53.416;6.730;2023-04-07T12:38:40;13.40;92.70
51982;DHT22;37998;53.416;6.730;2023-04-07T12:41:06;13.30;92.40
51982;DHT22;37998;53.416;6.730;2023-04-07T12:43:33;13.40;92.30
51982;DHT22;37998;53.416;6.730;2023-04-07T12:45:58;13.40;91.90
51982;DHT22;37998;53.416;6.730;2023-04-07T12:48:24;13.50;91.50
51982;DHT22;37998;53.416;6.730;2023-04-07T12:50:51;13.50;91.30
51982;DHT22;37998;53.416;6.730;2023-04-07T12:53:17;13.60;91.50
51982;DHT22;37998;53.416;6.730;2023-04-07T12:55:43;13.70;91.70
51982;DHT22;37998;53.416;6.730;2023-04-07T12:58:09;13.80;91.40
51982;DHT22;37998;53.416;6.730;2023-04-07T13:00:35;13.80;90.90
51982;DHT22;37998;53.416;6.730;2023-04-07T13:03:01;13.90;90.40
51982;DHT22;37998;53.416;6.730;2023-04-07T13:05:28;13.90;89.70
51982;DHT22;37998;53.416;6.730;2023-04-07T13:07:53;14.00;88.80
51982;DHT22;37998;53.416;6.730;2023-04-07T13:10:19;14.00;88.00
51982;DHT22;37998;53.416;6.730;2023-04-07T13:12:45;14.00;86.80
51982;DHT22;37998;53.416;6.730;2023-04-07T13:15:11;14.10;85.80
51982;DHT22;37998;53.416;6.730;2023-04-07T13:17:37;14.00;84.50
51982;DHT22;37998;53.416;6.730;2023-04-07T13:20:04;14.00;84.00
51982;DHT22;37998;53.416;6.730;2023-04-07T13:22:31;14.00;84.30
51982;DHT22;37998;53.416;6.730;2023-04-07T13:24:56;14.10;84.40
51982;DHT22;37998;53.416;6.730;2023-04-07T13:27:22;15.10;84.10
51982;DHT22;37998;53.416;6.730;2023-04-07T13:29:48;13.90;82.70
51982;DHT22;37998;53.416;6.730;2023-04-07T13:32:13;13.80;82.30
51982;DHT22;37998;53.416;6.730;2023-04-07T13:34:40;13.80;82.80
51982;DHT22;37998;53.416;6.730;2023-04-07T13:37:06;13.80;82.80
51982;DHT22;37998;53.416;6.730;2023-04-07T13:39:32;13.90;82.20
51982;DHT22;37998;53.416;6.730;2023-04-07T13:41:58;14.00;81.50
51982;DHT22;37998;53.416;6.730;2023-04-07T13:44:25;14.00;81.20
51982;DHT22;37998;53.416;6.730;2023-04-07T13:46:51;14.10;80.20
51982;DHT22;37998;53.416;6.730;2023-04-07T13:49:17;14.10;79.10
51982;DHT22;37998;53.416;6.730;2023-04-07T13:51:42;14.10;77.90
51982;DHT22;37998;53.416;6.730;2023-04-07T13:54:08;14.00;77.80
51982;DHT22;37998;53.416;6.730;2023-04-07T13:56:34;14.20;78.10
51982;DHT22;37998;53.416;6.730;2023-04-07T13:59:00;14.10;77.80
51982;DHT22;37998;53.416;6.730;2023-04-07T14:01:26;14.20;76.60
51982;DHT22;37998;53.416;6.730;2023-04-07T14:03:53;14.20;75.20
51982;DHT22;37998;53.416;6.730;2023-04-07T14:06:18;14.20;75.70
51982;DHT22;37998;53.416;6.730;2023-04-07T14:08:50;14.20;76.50
51982;DHT22;37998;53.416;6.730;2023-04-07T14:11:19;14.30;75.60
51982;DHT22;37998;53.416;6.730;2023-04-07T14:13:47;14.30;74.60
51982;DHT22;37998;53.416;6.730;2023-04-07T14:16:13;14.40;75.00
51982;DHT22;37998;53.416;6.730;2023-04-07T14:18:39;14.30;73.90
51982;DHT22;37998;53.416;6.730;2023-04-07T14:21:05;14.30;74.20
51982;DHT22;37998;53.416;6.730;2023-04-07T14:23:31;14.30;74.60
51982;DHT22;37998;53.416;6.730;2023-04-07T14:25:57;14.30;74.90
51982;DHT22;37998;53.416;6.730;2023-04-07T14:28:23;14.30;74.40
51982;DHT22;37998;53.416;6.730;2023-04-07T14:30:49;14.30;73.40
51982;DHT22;37998;53.416;6.730;2023-04-07T14:33:14;14.30;74.80
51982;DHT22;37998;53.416;6.730;2023-04-07T14:35:42;14.30;74.70
51982;DHT22;37998;53.416;6.730;2023-04-07T14:38:08;14.40;74.60
51982;DHT22;37998;53.416;6.730;2023-04-07T14:40:34;14.40;73.60
51982;DHT22;37998;53.416;6.730;2023-04-07T14:43:01;14.40;73.10
51982;DHT22;37998;53.416;6.730;2023-04-07T14:45:27;14.40;73.10
51982;DHT22;37998;53.416;6.730;2023-04-07T14:47:53;14.30;73.20
51982;DHT22;37998;53.416;6.730;2023-04-07T14:50:19;14.30;72.80
51982;DHT22;37998;53.416;6.730;2023-04-07T14:52:44;14.30;71.90
51982;DHT22;37998;53.416;6.730;2023-04-07T14:55:10;14.30;71.90
51982;DHT22;37998;53.416;6.730;2023-04-07T14:57:36;14.40;72.50
51982;DHT22;37998;53.416;6.730;2023-04-07T15:00:03;14.40;71.60
51982;DHT22;37998;53.416;6.730;2023-04-07T15:02:32;14.30;71.10
51982;DHT22;37998;53.416;6.730;2023-04-07T15:04:57;14.30;71.20
51982;DHT22;37998;53.416;6.730;2023-04-07T15:07:24;14.30;71.40
51982;DHT22;37998;53.416;6.730;2023-04-07T15:09:49;14.30;71.20
51982;DHT22;37998;53.416;6.730;2023-04-07T15:12:15;14.30;71.80
51982;DHT22;37998;53.416;6.730;2023-04-07T15:14:42;14.30;71.50
51982;DHT22;37998;53.416;6.730;2023-04-07T15:17:08;14.30;71.50
51982;DHT22;37998;53.416;6.730;2023-04-07T15:19:34;14.30;71.50
51982;DHT22;37998;53.416;6.730;2023-04-07T15:21:59;14.30;72.20
51982;DHT22;37998;53.416;6.730;2023-04-07T15:24:25;14.30;72.80
51982;DHT22;37998;53.416;6.730;2023-04-07T15:26:51;14.30;71.80
51982;DHT22;37998;53.416;6.730;2023-04-07T15:29:16;14.30;72.20
51982;DHT22;37998;53.416;6.730;2023-04-07T15:31:42;14.30;71.70
51982;DHT22;37998;53.416;6.730;2023-04-07T15:34:08;14.30;71.40
51982;DHT22;37998;53.416;6.730;2023-04-07T15:36:33;14.30;71.30
51982;DHT22;37998;53.416;6.730;2023-04-07T15:39:03;14.30;70.90
51982;DHT22;37998;53.416;6.730;2023-04-07T15:41:29;14.30;70.10
51982;DHT22;37998;53.416;6.730;2023-04-07T15:43:55;14.20;70.20
51982;DHT22;37998;53.416;6.730;2023-04-07T15:46:21;14.20;70.70
51982;DHT22;37998;53.416;6.730;2023-04-07T15:48:47;14.20;70.80
51982;DHT22;37998;53.416;6.730;2023-04-07T15:51:12;14.20;70.90
51982;DHT22;37998;53.416;6.730;2023-04-07T15:53:38;14.10;70.50
51982;DHT22;37998;53.416;6.730;2023-04-07T15:56:04;14.10;70.70
51982;DHT22;37998;53.416;6.730;2023-04-07T15:58:30;14.10;71.00